Terminal Aerodrome Forecast
Issued by NWS

Home | Current Version | Previous Version | Text Only | Print | Product List | Glossary On
Versions: 1 2 3 4 5 6 7 8 9 10 11 12 13 14 15
000
FTUS42 KTAE 021730
TAFVLD
TAF
KVLD 021730Z 0218/0318 18008KT P6SM SCT035
     FM021900 19008KT P6SM VCTS BKN040CB
      TEMPO 0219/0222 5SM -TSRA BKN030CB
     FM030000 00000KT P6SM OVC250
     FM030600 19002KT 5SM BR OVC007
     FM031400 21007KT P6SM BKN035=

USA.gov is the U.S. government's official web portal to all federal, state and local government web resources and services.